Time;durP1;ratioP1;P1;durP2;ratioP2;P2;SDS_P1;SDS_P2;PMS_P1;PMS_P2;Temp;Humidity;BMP_temperature;BMP_pressure;BME280_temperature;BME280_humidity;BME280_pressure;Samples;Min_cycle;Max_cycle;Signal;HPM_P1;HPM_P2
2021/03/26 00:02:28;;;;;;;10.70;2.83;;;;;;;10.77;100.00;101489.64;1778211;79;26301;-78
2021/03/26 00:04:58;;;;;;;8.73;2.90;;;;;;;10.63;100.00;101480.95;1777588;81;26348;-78
2021/03/26 00:07:28;;;;;;;6.90;2.90;;;;;;;10.66;100.00;101478.17;1778166;80;26329;-79
2021/03/26 00:09:58;;;;;;;12.33;3.00;;;;;;;10.52;100.00;101468.13;1777813;81;26359;-79
2021/03/26 00:12:29;;;;;;;9.47;2.83;;;;;;;10.49;100.00;101468.09;1778245;81;26270;-80
2021/03/26 00:14:59;;;;;;;14.67;3.97;;;;;;;10.48;100.00;101468.39;1778279;81;26312;-79
2021/03/26 00:17:28;;;;;;;14.40;4.10;;;;;;;10.47;100.00;101464.77;1778339;80;26442;-80
2021/03/26 00:19:59;;;;;;;11.67;3.00;;;;;;;10.46;100.00;101468.64;1778213;80;26266;-80
2021/03/26 00:22:29;;;;;;;17.83;3.90;;;;;;;10.43;100.00;101471.97;1778400;80;26663;-80
2021/03/26 00:24:59;;;;;;;16.80;4.40;;;;;;;10.49;100.00;101461.70;1778398;81;26313;-79
2021/03/26 00:27:29;;;;;;;12.37;3.40;;;;;;;10.53;100.00;101458.66;1778251;80;26694;-79
2021/03/26 00:29:59;;;;;;;14.27;4.33;;;;;;;10.50;100.00;101444.78;1778235;80;26344;-79
2021/03/26 00:32:29;;;;;;;16.03;4.50;;;;;;;10.49;100.00;101447.27;1778251;80;26235;-79
2021/03/26 00:34:59;;;;;;;12.30;4.50;;;;;;;10.43;100.00;101445.59;1778236;80;26371;-79
2021/03/26 00:37:29;;;;;;;17.23;5.60;;;;;;;10.36;100.00;101440.80;1778238;80;26273;-79
2021/03/26 00:39:58;;;;;;;16.97;4.93;;;;;;;10.43;100.00;101430.86;1778028;81;26258;-79
2021/03/26 00:42:28;;;;;;;19.67;5.97;;;;;;;10.45;100.00;101431.41;1778275;80;26345;-79
2021/03/26 00:44:58;;;;;;;12.17;4.87;;;;;;;10.54;100.00;101431.73;1778416;80;26274;-79
2021/03/26 00:47:28;;;;;;;15.07;5.77;;;;;;;10.48;100.00;101425.34;1778359;80;26273;-79
2021/03/26 00:49:58;;;;;;;13.60;5.80;;;;;;;10.49;100.00;101432.53;1777548;81;26274;-79
2021/03/26 00:52:28;;;;;;;17.37;5.20;;;;;;;10.42;100.00;101427.24;1778226;80;26273;-79
2021/03/26 00:54:58;;;;;;;18.07;5.00;;;;;;;10.56;100.00;101437.31;1778204;80;26344;-79
2021/03/26 00:57:28;;;;;;;15.53;4.93;;;;;;;10.66;100.00;101437.89;1778230;80;26265;-79
2021/03/26 00:59:58;;;;;;;16.40;5.17;;;;;;;10.59;100.00;101427.59;1778213;81;26269;-79
2021/03/26 01:02:27;;;;;;;10.37;4.17;;;;;;;10.65;100.00;101425.97;1778222;79;26725;-79
2021/03/26 01:04:57;;;;;;;17.67;5.63;;;;;;;10.69;100.00;101432.65;1777756;81;26313;-79
2021/03/26 01:07:27;;;;;;;16.37;6.23;;;;;;;10.69;100.00;101425.70;1779128;80;26721;-79
2021/03/26 01:09:57;;;;;;;17.70;4.87;;;;;;;10.74;100.00;101420.72;1717583;83;26828;-79
2021/03/26 01:12:27;;;;;;;17.10;6.27;;;;;;;10.85;100.00;101419.08;1746337;82;26303;-80
2021/03/26 01:14:57;;;;;;;16.50;5.07;;;;;;;10.87;100.00;101417.40;1783821;80;26312;-80
2021/03/26 01:17:27;;;;;;;16.53;4.77;;;;;;;10.89;100.00;101409.64;1718216;83;26257;-80
2021/03/26 01:19:58;;;;;;;13.00;4.70;;;;;;;10.88;100.00;101396.30;1781831;80;26238;-80
2021/03/26 01:22:29;;;;;;;13.30;4.53;;;;;;;11.00;100.00;101400.75;1717603;83;26436;-79
2021/03/26 01:24:58;;;;;;;13.73;4.27;;;;;;;10.91;100.00;101401.88;1783258;80;26286;-80
2021/03/26 01:27:28;;;;;;;12.83;3.47;;;;;;;10.99;100.00;101383.27;1717686;83;26421;-80
2021/03/26 01:29:58;;;;;;;8.80;3.67;;;;;;;11.07;100.00;101386.89;1782151;80;26281;-80
2021/03/26 01:32:28;;;;;;;12.20;3.17;;;;;;;11.12;100.00;101383.29;1717779;83;26848;-80
2021/03/26 01:34:58;;;;;;;13.27;3.03;;;;;;;11.14;100.00;101381.89;1781580;80;26822;-80
2021/03/26 01:37:28;;;;;;;10.60;4.00;;;;;;;11.20;100.00;101368.84;1717704;83;26754;-80
2021/03/26 01:39:58;;;;;;;10.87;3.07;;;;;;;11.19;100.00;101373.56;1783266;80;26749;-80
2021/03/26 01:42:30;;;;;;;11.20;3.13;;;;;;;11.25;100.00;101359.92;1717688;83;26916;-80
2021/03/26 01:45:01;;;;;;;12.47;3.17;;;;;;;11.32;100.00;101354.94;1783065;80;26311;-80
2021/03/26 01:47:31;;;;;;;10.43;3.07;;;;;;;11.30;100.00;101356.30;1717639;83;26327;-80
2021/03/26 01:50:01;;;;;;;11.13;3.73;;;;;;;11.21;100.00;101353.83;1782932;80;26230;-80
2021/03/26 01:52:31;;;;;;;15.37;3.50;;;;;;;11.20;100.00;101350.21;1717567;83;26396;-80
2021/03/26 01:55:01;;;;;;;11.63;3.23;;;;;;;11.22;100.00;101349.91;1783190;80;26238;-80
2021/03/26 01:57:31;;;;;;;14.20;3.47;;;;;;;11.26;100.00;101350.47;1783224;80;26242;-79
2021/03/26 02:00:01;;;;;;;9.83;2.67;;;;;;;11.25;100.00;101338.26;1717589;83;26268;-80
2021/03/26 02:02:31;;;;;;;9.17;3.53;;;;;;;11.22;100.00;101336.84;1781964;79;26689;-80
2021/03/26 02:05:01;;;;;;;10.83;3.10;;;;;;;11.23;100.00;101322.39;1717569;83;26727;-80
2021/03/26 02:07:31;;;;;;;9.80;3.27;;;;;;;11.25;100.00;101329.33;1783125;80;26230;-80
2021/03/26 02:10:01;;;;;;;10.00;2.93;;;;;;;11.29;100.00;101322.68;1693690;83;26269;-80
2021/03/26 02:12:34;;;;;;;12.00;3.10;;;;;;;11.34;100.00;101324.05;1720480;82;26317;-80
2021/03/26 02:15:08;;;;;;;10.37;3.00;;;;;;;11.33;100.00;101321.84;1705198;84;26712;-80
2021/03/26 02:17:40;;;;;;;10.03;2.90;;;;;;;11.29;100.00;101314.34;1761803;81;26278;-80
2021/03/26 02:20:15;;;;;;;8.37;3.00;;;;;;;11.32;100.00;101312.38;1761893;81;26231;-80
2021/03/26 02:22:45;;;;;;;9.47;2.53;;;;;;;11.30;100.00;101307.64;1721895;81;26336;-82
2021/03/26 02:25:17;;;;;;;9.30;2.70;;;;;;;11.32;100.00;101304.87;1705496;83;26797;-79
2021/03/26 02:27:47;;;;;;;8.83;2.90;;;;;;;11.30;100.00;101299.30;1761603;81;26676;-80
2021/03/26 02:30:21;;;;;;;13.27;3.20;;;;;;;11.34;100.00;101292.06;1761875;81;26239;-80
2021/03/26 02:32:51;;;;;;;8.53;2.87;;;;;;;11.27;100.00;101288.73;1761749;81;24678;-79
2021/03/26 02:35:26;;;;;;;9.07;2.73;;;;;;;11.25;100.00;101293.18;1761840;81;26654;-79
2021/03/26 02:37:59;;;;;;;12.30;2.83;;;;;;;11.32;100.00;101279.00;1761666;81;26252;-79
2021/03/26 02:40:32;;;;;;;9.53;2.73;;;;;;;11.30;100.00;101279.83;1761852;81;26710;-79
2021/03/26 02:46:04;;;;;;;7.33;2.00;;;;;;;11.27;100.00;101266.49;1822593;79;26256;-74
2021/03/26 02:48:39;;;;;;;9.33;2.63;;;;;;;11.26;100.00;101270.38;1823238;77;26821;-74
2021/03/26 02:51:14;;;;;;;8.03;1.83;;;;;;;11.27;100.00;101267.88;1823030;78;26299;-75
2021/03/26 02:53:50;;;;;;;10.80;2.47;;;;;;;11.27;100.00;101258.15;1823162;79;26781;-74
2021/03/26 02:56:23;;;;;;;9.17;2.20;;;;;;;11.30;100.00;101258.97;1823153;79;26268;-73
2021/03/26 02:58:56;;;;;;;11.37;2.40;;;;;;;11.21;100.00;101248.97;1823168;79;26704;-74
2021/03/26 03:01:30;;;;;;;10.63;2.70;;;;;;;11.18;100.00;101252.87;1823160;79;26240;-74
2021/03/26 03:04:03;;;;;;;8.87;2.40;;;;;;;11.21;100.00;101242.60;1823047;79;26244;-74
2021/03/26 03:06:36;;;;;;;8.80;2.40;;;;;;;11.23;100.00;101247.31;1823829;77;26322;-74
2021/03/26 03:09:09;;;;;;;7.60;2.60;;;;;;;11.17;100.00;101235.34;1853534;77;26233;-75
2021/03/26 03:11:42;;;;;;;9.47;2.20;;;;;;;11.18;100.00;101233.41;1852928;77;26715;-74
2021/03/26 03:14:16;;;;;;;7.70;2.63;;;;;;;11.21;100.00;101230.89;1853648;77;26201;-75
2021/03/26 03:16:51;;;;;;;7.97;2.33;;;;;;;11.22;100.00;101230.34;1853521;77;26352;-75
2021/03/26 03:19:25;;;;;;;9.50;2.60;;;;;;;11.16;100.00;101230.92;1853242;77;26245;-75
2021/03/26 03:21:58;;;;;;;7.87;2.23;;;;;;;11.22;100.00;101228.95;1852693;77;26299;-75
2021/03/26 03:24:32;;;;;;;9.30;2.70;;;;;;;11.12;100.00;101218.70;1853661;77;26199;-75
2021/03/26 03:27:12;;;;;;;9.17;2.50;;;;;;;11.14;100.00;101213.67;1853403;77;26249;-75
2021/03/26 03:29:46;;;;;;;10.07;2.63;;;;;;;11.10;100.00;101218.69;1853127;77;26738;-73
2021/03/26 03:32:19;;;;;;;6.97;2.43;;;;;;;11.17;100.00;101222.00;1853430;77;26274;-74
2021/03/26 03:34:53;;;;;;;9.37;2.63;;;;;;;11.14;100.00;101218.40;1853470;77;26217;-73
2021/03/26 03:37:43;;;;;;;5.87;2.40;;;;;;;11.19;100.00;101219.23;1806208;79;33293;-73
2021/03/26 03:40:17;;;;;;;8.57;2.47;;;;;;;11.20;100.00;101222.86;1799300;80;26227;-75
2021/03/26 03:42:51;;;;;;;10.10;3.00;;;;;;;11.16;100.00;101213.41;1800206;80;26309;-75
2021/03/26 03:45:24;;;;;;;5.33;1.70;;;;;;;11.20;100.00;101224.24;1816966;76;26236;-75
2021/03/26 03:47:57;;;;;;;5.17;1.90;;;;;;;11.17;100.00;101208.94;1831606;78;26166;-75
2021/03/26 03:50:31;;;;;;;5.23;2.10;;;;;;;11.20;100.00;101200.06;1831577;78;26176;-74
2021/03/26 03:53:05;;;;;;;7.40;2.10;;;;;;;11.20;100.00;101194.49;1831554;78;26271;-74
2021/03/26 03:55:37;;;;;;;5.60;2.30;;;;;;;11.22;100.00;101196.97;1831704;78;26165;-73
2021/03/26 03:58:10;;;;;;;7.47;2.40;;;;;;;11.19;100.00;101193.37;1831521;78;26194;-74
2021/03/26 04:00:43;;;;;;;6.93;2.43;;;;;;;11.22;100.00;101194.19;1831509;78;26268;-74
2021/03/26 04:03:17;;;;;;;8.37;2.33;;;;;;;11.22;100.00;101195.03;1831554;78;26690;-73
2021/03/26 04:05:51;;;;;;;6.43;2.20;;;;;;;11.15;100.00;101190.88;1831504;78;26247;-74
2021/03/26 04:08:24;;;;;;;5.57;2.00;;;;;;;11.13;100.00;101191.70;1845534;76;26175;-74
2021/03/26 04:10:57;;;;;;;7.60;2.40;;;;;;;11.11;100.00;101190.62;1886929;75;26176;-73
2021/03/26 04:13:31;;;;;;;8.60;2.40;;;;;;;11.05;100.00;101189.50;1887231;76;26150;-73
2021/03/26 04:16:03;;;;;;;12.73;2.40;;;;;;;11.13;100.00;101191.70;1886896;76;26164;-73
2021/03/26 04:18:37;;;;;;;6.50;2.53;;;;;;;11.13;100.00;101193.09;1886898;76;26202;-73
2021/03/26 04:21:10;;;;;;;10.13;2.00;;;;;;;11.06;100.00;101189.23;1886933;75;26771;-74
2021/03/26 04:23:43;;;;;;;8.90;2.00;;;;;;;11.07;100.00;101188.67;1886887;75;26171;-74
2021/03/26 04:26:17;;;;;;;9.13;2.53;;;;;;;11.03;100.00;101180.62;1886881;76;26625;-73
2021/03/26 04:28:50;;;;;;;11.37;2.53;;;;;;;10.91;100.00;101176.75;1886901;76;26260;-74
2021/03/26 04:31:23;;;;;;;11.00;2.63;;;;;;;10.90;100.00;101181.47;1887049;76;26150;-74
2021/03/26 04:33:54;;;;;;;8.57;2.10;;;;;;;10.89;100.00;101178.41;1886980;75;26166;-74
2021/03/26 04:36:27;;;;;;;11.33;3.00;;;;;;;10.84;100.00;101178.96;1886898;76;26171;-74
2021/03/26 04:39:01;;;;;;;13.93;2.73;;;;;;;10.85;100.00;101165.35;1885570;75;26296;-74
2021/03/26 04:41:35;;;;;;;10.33;2.40;;;;;;;10.83;100.00;101164.23;1886898;75;26646;-74
2021/03/26 04:44:08;;;;;;;8.87;2.80;;;;;;;10.89;100.00;101160.34;1886880;75;26653;-74
2021/03/26 04:46:43;;;;;;;12.50;2.80;;;;;;;10.92;100.00;101165.89;1886991;74;26609;-74
2021/03/26 04:49:17;;;;;;;13.57;2.57;;;;;;;10.98;100.00;101156.44;1886837;75;26171;-74
2021/03/26 04:51:51;;;;;;;9.73;2.30;;;;;;;10.91;100.00;101165.05;1886967;76;26642;-74
2021/03/26 04:54:24;;;;;;;8.97;2.23;;;;;;;10.98;100.00;101167.56;1886871;76;26276;-74
2021/03/26 04:56:56;;;;;;;7.37;2.77;;;;;;;11.02;100.00;101156.70;1887016;76;26158;-74
2021/03/26 04:59:29;;;;;;;7.90;2.27;;;;;;;11.00;100.00;101161.70;1886941;75;26292;-74
2021/03/26 05:02:01;;;;;;;8.40;2.23;;;;;;;10.99;100.00;101158.11;1874723;76;932659;-74
2021/03/26 05:04:34;;;;;;;8.93;2.40;;;;;;;10.99;100.00;101159.50;1886934;75;26175;-74
2021/03/26 05:07:07;;;;;;;8.23;2.50;;;;;;;10.99;100.00;101161.45;1886954;75;26174;-74
2021/03/26 05:09:40;;;;;;;8.07;2.10;;;;;;;10.98;100.00;101156.99;1886907;75;26249;-74
2021/03/26 05:12:15;;;;;;;9.97;2.13;;;;;;;10.90;100.00;101162.02;1886958;76;26231;-74
2021/03/26 05:14:48;;;;;;;6.93;2.50;;;;;;;11.00;100.00;101152.81;1886911;75;26719;-74
2021/03/26 05:17:23;;;;;;;8.67;2.33;;;;;;;10.97;100.00;101151.98;1886785;75;26175;-74
2021/03/26 05:19:55;;;;;;;8.83;2.20;;;;;;;10.95;100.00;101151.45;1886996;76;26553;-74
2021/03/26 05:22:38;;;;;;;9.47;2.60;;;;;;;11.01;100.00;101143.91;1886723;75;26171;-74
2021/03/26 05:25:13;;;;;;;9.97;2.80;;;;;;;11.01;100.00;101129.47;1886987;76;26633;-74
2021/03/26 05:27:45;;;;;;;12.17;2.67;;;;;;;10.95;100.00;101130.02;1886919;75;26230;-74
2021/03/26 05:30:21;;;;;;;10.10;2.43;;;;;;;11.02;100.00;101124.74;1886892;75;26176;-74
2021/03/26 05:32:55;;;;;;;10.37;2.27;;;;;;;10.91;100.00;101127.53;1886903;75;26179;-74
2021/03/26 05:35:28;;;;;;;8.47;2.23;;;;;;;10.99;100.00;101121.98;1886988;76;26167;-75
2021/03/26 05:38:08;;;;;;;13.07;2.67;;;;;;;11.00;100.00;101118.06;1886851;75;26187;-74
2021/03/26 05:41:09;;;;;;;6.10;2.03;;;;;;;10.95;100.00;101112.54;1886855;76;26740;-74
2021/03/26 05:44:04;;;;;;;6.07;2.00;;;;;;;10.96;100.00;101108.07;1886534;75;26602;-74
2021/03/26 05:46:42;;;;;;;8.87;3.50;;;;;;;11.01;100.00;101112.78;1886938;74;26227;-74
2021/03/26 05:49:17;;;;;;;6.80;1.87;;;;;;;11.03;100.00;101110.57;1886760;75;26184;-74
2021/03/26 05:52:06;;;;;;;11.73;2.67;;;;;;;11.05;100.00;101113.05;1887062;76;26259;-74
2021/03/26 05:54:44;;;;;;;6.17;2.60;;;;;;;11.05;100.00;101105.55;1886579;75;26241;-75
2021/03/26 05:57:17;;;;;;;11.10;2.30;;;;;;;11.00;100.00;101103.33;1886758;75;26174;-75
2021/03/26 06:00:00;;;;;;;10.50;2.83;;;;;;;10.98;100.00;101102.23;1886096;75;26732;-74
2021/03/26 06:02:44;;;;;;;11.07;2.60;;;;;;;10.92;100.00;101103.35;1887167;76;26170;-74
2021/03/26 06:05:58;;;;;;;9.53;2.87;;;;;;;10.90;100.00;101095.31;1886513;75;26182;-74
2021/03/26 06:08:54;;;;;;;8.80;2.20;;;;;;;10.78;100.00;101100.91;1878414;75;26191;-74
2021/03/26 06:11:49;;;;;;;12.53;2.50;;;;;;;10.80;100.00;101094.49;1886649;75;26172;-74
2021/03/26 06:14:37;;;;;;;9.17;2.17;;;;;;;10.76;100.00;101089.22;1885877;75;26171;-74
2021/03/26 06:17:53;;;;;;;8.60;2.67;;;;;;;10.78;100.00;101089.20;1886563;75;26666;-74
2021/03/26 06:20:37;;;;;;;10.67;2.53;;;;;;;10.73;100.00;101084.23;1835687;76;26142;-74
2021/03/26 06:23:29;;;;;;;10.10;2.37;;;;;;;10.68;100.00;101084.23;1887280;75;26187;-72
2021/03/26 06:26:17;;;;;;;7.73;2.90;;;;;;;10.74;100.00;101093.66;1885162;75;26175;-73
2021/03/26 06:28:50;;;;;;;9.00;2.67;;;;;;;10.69;100.00;101092.86;1887268;76;26182;-73
2021/03/26 06:31:54;;;;;;;9.10;2.37;;;;;;;10.74;100.00;101088.69;1886903;76;26225;-73
2021/03/26 06:34:59;;;;;;;10.63;2.90;;;;;;;10.73;100.00;101085.63;1885865;75;26184;-73
2021/03/26 06:37:46;;;;;;;8.80;2.43;;;;;;;10.76;100.00;101083.11;1886504;75;26256;-74
2021/03/26 06:40:44;;;;;;;11.57;2.73;;;;;;;10.78;100.00;101081.45;1886512;75;26171;-74
2021/03/26 06:44:01;;;;;;;7.10;2.70;;;;;;;10.72;100.00;101077.01;1880798;75;26207;-74
2021/03/26 06:46:38;;;;;;;12.10;3.60;;;;;;;10.80;100.00;101083.38;1848731;74;26649;-74
2021/03/26 06:49:12;;;;;;;11.43;2.90;;;;;;;10.83;100.00;101081.42;1886584;75;26175;-74
2021/03/26 06:52:03;;;;;;;10.37;2.77;;;;;;;10.91;100.00;101078.09;1887132;76;26174;-74
2021/03/26 06:55:10;;;;;;;9.23;2.67;;;;;;;10.88;100.00;101077.24;1886646;75;26171;-74
2021/03/26 06:58:03;;;;;;;6.57;2.47;;;;;;;10.85;100.00;101073.09;1883123;75;26265;-75
2021/03/26 07:01:03;;;;;;;9.17;2.30;;;;;;;10.91;100.00;101066.97;1886554;75;26245;-73
2021/03/26 07:03:43;;;;;;;5.93;2.23;;;;;;;10.91;100.00;101066.39;1886775;75;26249;-75
2021/03/26 07:06:37;;;;;;;7.13;2.70;;;;;;;10.95;100.00;101061.13;1886808;75;26657;-73
2021/03/26 07:09:17;;;;;;;11.60;3.00;;;;;;;10.96;100.00;101058.59;1886097;75;26646;-73
2021/03/26 07:11:54;;;;;;;6.07;2.10;;;;;;;11.07;100.00;101052.46;1887108;75;26216;-74
2021/03/26 07:14:36;;;;;;;13.00;2.83;;;;;;;11.03;100.00;101059.70;1886845;75;26249;-72
2021/03/26 07:17:31;;;;;;;6.93;2.30;;;;;;;11.06;100.00;101066.08;1887023;75;26634;-73
2021/03/26 07:20:27;;;;;;;6.43;2.23;;;;;;;11.09;100.00;101069.67;1887150;75;26643;-73
2021/03/26 07:23:23;;;;;;;4.73;2.40;;;;;;;11.10;100.00;101053.27;1886948;75;26163;-72
2021/03/26 07:26:07;;;;;;;7.20;2.37;;;;;;;11.15;100.00;101047.14;1886862;75;26257;-74
2021/03/26 07:28:41;;;;;;;9.20;2.00;;;;;;;11.14;100.00;101046.02;1887141;75;26204;-73
2021/03/26 07:31:17;;;;;;;7.20;1.93;;;;;;;11.07;100.00;101046.90;1886926;75;26167;-70
2021/03/26 07:33:53;;;;;;;4.43;1.90;;;;;;;11.13;100.00;101053.53;1886786;75;26264;-73
2021/03/26 07:36:37;;;;;;;5.40;2.00;;;;;;;11.05;100.00;101051.34;1887020;76;26212;-72
2021/03/26 07:39:25;;;;;;;7.53;2.27;;;;;;;11.08;100.00;101048.57;1886896;76;26194;-73
2021/03/26 07:42:24;;;;;;;7.70;2.10;;;;;;;11.15;100.00;101043.53;1886531;75;26257;-74
2021/03/26 07:45:24;;;;;;;8.40;2.03;;;;;;;11.11;100.00;101045.22;1875207;76;26167;-74
2021/03/26 07:48:26;;;;;;;9.33;2.70;;;;;;;11.16;100.00;101036.86;1886441;74;26235;-73
2021/03/26 07:50:59;;;;;;;6.57;1.93;;;;;;;11.15;100.00;101032.41;1886776;75;26147;-71
2021/03/26 07:53:59;;;;;;;7.10;2.03;;;;;;;11.13;100.00;101034.06;1886824;76;26218;-71
2021/03/26 07:56:38;;;;;;;5.03;2.20;;;;;;;11.17;100.00;101029.60;1886433;75;26218;-71
2021/03/26 07:59:24;;;;;;;5.30;2.03;;;;;;;11.11;100.00;101024.36;1886703;75;26186;-72
2021/03/26 08:02:19;;;;;;;6.70;2.03;;;;;;;11.18;100.00;101029.88;1886126;75;26249;-69
2021/03/26 08:04:52;;;;;;;6.27;1.80;;;;;;;11.15;100.00;101028.23;1878410;75;26219;-71
2021/03/26 08:07:59;;;;;;;4.57;2.00;;;;;;;11.20;100.00;101036.01;1887154;75;26609;-71
2021/03/26 08:10:35;;;;;;;7.13;2.10;;;;;;;11.24;100.00;101031.53;1879164;75;26700;-71
2021/03/26 08:13:48;;;;;;;7.00;2.30;;;;;;;11.27;100.00;101027.34;1886907;75;26184;-70
2021/03/26 08:16:52;;;;;;;6.50;2.60;;;;;;;11.31;100.00;101026.48;1886231;75;26171;-70
2021/03/26 08:19:26;;;;;;;6.80;2.23;;;;;;;11.43;100.00;101011.67;1886873;75;26190;-69
2021/03/26 08:22:00;;;;;;;8.37;2.30;;;;;;;11.43;100.00;101003.89;1886985;76;26214;-69
2021/03/26 08:24:55;;;;;;;8.07;1.90;;;;;;;11.36;100.00;101002.83;1886759;75;26638;-70
2021/03/26 08:27:33;;;;;;;7.53;1.93;;;;;;;11.43;100.00;101005.28;1886814;75;26176;-68
2021/03/26 08:30:31;;;;;;;7.83;2.20;;;;;;;11.49;100.00;101001.91;1886914;75;26181;-70
2021/03/26 08:33:25;;;;;;;4.83;2.20;;;;;;;11.61;100.00;100999.05;1886908;75;26175;-69
2021/03/26 08:36:20;;;;;;;5.97;2.00;;;;;;;11.67;100.00;101000.69;1887036;75;26154;-70
2021/03/26 08:39:16;;;;;;;5.77;1.87;;;;;;;11.74;100.00;100994.26;1886892;76;26237;-71
2021/03/26 08:41:50;;;;;;;6.33;1.77;;;;;;;11.84;100.00;100998.92;1887000;75;26664;-71
2021/03/26 08:44:22;;;;;;;6.60;2.10;;;;;;;11.82;100.00;100993.64;1886785;76;26218;-71
2021/03/26 08:46:55;;;;;;;8.53;2.40;;;;;;;11.81;100.00;100983.62;1830100;77;26288;-71
2021/03/26 08:49:36;;;;;;;7.97;2.47;;;;;;;11.98;100.00;100990.16;1807090;78;26668;-71
2021/03/26 08:52:37;;;;;;;7.87;2.27;;;;;;;12.05;100.00;100989.28;1851432;77;26256;-70
2021/03/26 08:55:54;;;;;;;10.30;2.50;;;;;;;12.04;100.00;100988.17;1850805;76;26312;-71
2021/03/26 08:59:00;;;;;;;21.30;3.63;;;;;;;11.98;100.00;100967.89;1851445;77;26207;-70
2021/03/26 09:02:02;;;;;;;7.70;1.87;;;;;;;12.06;100.00;100975.64;1893087;75;26258;-70
2021/03/26 09:05:23;;;;;;;8.27;1.90;;;;;;;12.08;100.00;100969.76;1889173;75;26207;-70
2021/03/26 09:08:04;;;;;;;10.50;2.50;;;;;;;12.39;100.00;100975.31;1876128;75;26169;-69
2021/03/26 09:10:44;;;;;;;10.50;2.50;;;;;;;12.26;100.00;100964.30;1892907;74;26134;-71
2021/03/26 09:13:24;;;;;;;9.90;2.83;;;;;;;12.27;100.00;100966.53;1891572;75;26653;-71
2021/03/26 09:16:03;;;;;;;7.67;2.13;;;;;;;12.24;100.00;100966.53;1892949;74;26594;-72
2021/03/26 09:18:47;;;;;;;7.90;2.27;;;;;;;12.02;100.00;100963.98;1893069;75;26150;-72
2021/03/26 09:21:29;;;;;;;6.93;2.17;;;;;;;12.03;100.00;100958.66;1893083;75;26166;-71
2021/03/26 09:24:13;;;;;;;7.47;2.43;;;;;;;12.10;100.00;100957.23;1893011;75;26162;-70
2021/03/26 09:26:57;;;;;;;9.43;2.40;;;;;;;12.14;100.00;100956.91;1892669;75;26223;-70
2021/03/26 09:29:35;;;;;;;7.70;2.13;;;;;;;12.29;100.00;100955.91;1893077;75;26174;-70
2021/03/26 09:32:14;;;;;;;7.50;2.67;;;;;;;12.13;100.00;100963.59;1893268;75;26166;-70
2021/03/26 09:34:48;;;;;;;7.23;2.17;;;;;;;12.14;100.00;100956.91;1893045;75;26146;-71
2021/03/26 09:37:22;;;;;;;9.43;2.43;;;;;;;12.05;100.00;100958.66;1893133;76;26224;-70
2021/03/26 09:39:56;;;;;;;9.93;2.97;;;;;;;12.11;100.00;100950.51;1892957;75;26181;-71
2021/03/26 09:42:37;;;;;;;8.97;2.70;;;;;;;12.24;100.00;100954.56;1893082;75;26167;-68
2021/03/26 09:45:12;;;;;;;7.10;2.83;;;;;;;12.23;100.00;100948.75;1893087;75;26141;-71
2021/03/26 09:47:46;;;;;;;10.90;2.70;;;;;;;12.31;100.00;100960.64;1893099;75;26194;-71
2021/03/26 09:50:34;;;;;;;8.60;2.80;;;;;;;12.19;100.00;100950.46;1892310;75;26216;-73
2021/03/26 09:53:09;;;;;;;9.67;2.60;;;;;;;12.28;100.00;100953.68;1893068;75;26210;-72
2021/03/26 09:55:42;;;;;;;7.40;2.27;;;;;;;12.24;100.00;100945.65;1893038;76;26184;-72
2021/03/26 09:58:19;;;;;;;12.80;2.20;;;;;;;12.28;100.00;100941.15;1893075;75;26182;-72
2021/03/26 10:00:56;;;;;;;10.03;2.57;;;;;;;12.25;100.00;100943.14;1893348;75;26248;-71
2021/03/26 10:03:40;;;;;;;7.47;2.33;;;;;;;12.24;100.00;100944.26;1893165;75;26633;-72
2021/03/26 10:06:15;;;;;;;10.77;2.50;;;;;;;12.23;100.00;100934.83;1892936;75;26584;-71
2021/03/26 10:08:56;;;;;;;8.00;2.57;;;;;;;12.38;100.00;100932.42;1892728;76;26256;-71
2021/03/26 10:11:26;;;;;;;8.93;2.17;;;;;;;12.24;100.00;100925.31;1892226;76;26142;-72
2021/03/26 10:13:59;;;;;;;7.87;2.83;;;;;;;12.22;100.00;100920.63;1893005;76;26707;-71
2021/03/26 10:16:38;;;;;;;8.30;2.50;;;;;;;12.31;100.00;100920.25;1893139;76;26162;-70
2021/03/26 10:19:12;;;;;;;8.17;2.20;;;;;;;12.65;100.00;100915.39;1892776;75;26294;-71
2021/03/26 10:21:48;;;;;;;10.30;2.23;;;;;;;12.84;100.00;100904.27;1892940;74;26627;-71
2021/03/26 10:24:24;;;;;;;9.37;2.10;;;;;;;12.87;100.00;100889.75;1893021;75;26190;-71
2021/03/26 10:27:01;;;;;;;10.40;2.73;;;;;;;13.00;100.00;100888.17;1893009;75;26703;-71
2021/03/26 10:29:41;;;;;;;9.77;2.47;;;;;;;12.91;100.00;100872.69;1893037;75;27079;-71
2021/03/26 10:32:19;;;;;;;10.03;2.87;;;;;;;12.82;100.00;100882.84;1893129;76;26211;-70
2021/03/26 10:34:52;;;;;;;7.77;2.40;;;;;;;12.77;100.00;100882.91;1893148;76;26158;-70
2021/03/26 10:37:37;;;;;;;7.20;2.50;;;;;;;12.68;100.00;100870.76;1893151;75;26177;-71
2021/03/26 10:40:11;;;;;;;16.87;7.10;;;;;;;12.66;100.00;100874.42;1893410;76;26239;-71
2021/03/26 10:42:49;;;;;;;7.57;3.57;;;;;;;12.69;100.00;100864.90;1893134;75;26135;-71
2021/03/26 10:45:33;;;;;;;11.30;2.93;;;;;;;12.75;100.00;100854.48;1893155;75;26126;-71
2021/03/26 10:48:07;;;;;;;5.90;2.33;;;;;;;12.84;100.00;100858.83;1893079;75;26601;-72
2021/03/26 10:50:48;;;;;;;9.43;3.47;;;;;;;12.83;100.00;100853.02;1893272;75;26228;-72
2021/03/26 10:53:20;;;;;;;7.60;2.67;;;;;;;12.84;100.00;100848.52;1892180;75;26228;-71
2021/03/26 10:55:53;;;;;;;8.60;2.23;;;;;;;12.85;100.00;100857.14;1893276;75;26155;-71
2021/03/26 10:58:30;;;;;;;8.93;2.43;;;;;;;13.01;100.00;100843.80;1893148;76;26593;-72
2021/03/26 11:01:04;;;;;;;8.00;2.40;;;;;;;13.21;100.00;100841.59;1893146;75;26158;-72
2021/03/26 11:03:39;;;;;;;7.50;2.73;;;;;;;13.08;100.00;100836.74;1893127;75;26212;-71
2021/03/26 11:06:17;;;;;;;8.07;2.80;;;;;;;13.07;100.00;100838.42;1893197;75;26211;-71
2021/03/26 11:08:53;;;;;;;6.53;2.17;;;;;;;13.00;100.00;100837.42;1893234;75;26178;-71
2021/03/26 11:11:45;;;;;;;7.80;2.13;;;;;;;13.04;100.00;100831.50;1893156;75;26158;-71
2021/03/26 11:14:42;;;;;;;4.87;2.33;;;;;;;13.08;100.00;100833.12;1892315;74;26207;-71
2021/03/26 11:17:20;;;;;;;9.60;2.47;;;;;;;13.09;100.00;100814.67;1893160;75;26162;-71
2021/03/26 11:20:09;;;;;;;6.47;1.97;;;;;;;13.27;100.00;100820.00;1893130;75;26150;-71
2021/03/26 11:22:43;;;;;;;6.30;1.83;;;;;;;13.49;100.00;100810.42;1893313;76;26162;-71
2021/03/26 11:25:15;;;;;;;8.40;2.30;;;;;;;13.54;100.00;100799.17;1893262;75;26216;-71
2021/03/26 11:27:50;;;;;;;7.50;2.03;;;;;;;13.62;100.00;100790.66;1891644;75;26153;-70
2021/03/26 11:30:26;;;;;;;8.37;2.13;;;;;;;13.58;100.00;100789.61;1893132;75;26223;-70
2021/03/26 11:33:00;;;;;;;10.33;2.33;;;;;;;13.60;100.00;100786.80;1892714;75;26212;-70
2021/03/26 11:35:36;;;;;;;8.97;2.20;;;;;;;13.67;100.00;100783.03;1891561;75;26145;-70
2021/03/26 11:38:14;;;;;;;7.47;2.60;;;;;;;13.60;100.00;100777.03;1893227;75;26200;-70
2021/03/26 11:40:48;;;;;;;11.97;3.13;;;;;;;13.55;100.00;100760.38;1893125;75;26146;-71
2021/03/26 11:43:21;;;;;;;6.50;2.00;;;;;;;13.67;100.00;100763.48;1893147;75;26655;-70
2021/03/26 11:45:59;;;;;;;12.80;3.40;;;;;;;13.69;100.00;100762.59;1893152;75;26671;-70
2021/03/26 11:48:51;;;;;;;7.63;2.23;;;;;;;13.50;100.00;100756.27;1893452;75;26150;-70
2021/03/26 11:51:29;;;;;;;8.27;2.40;;;;;;;13.65;100.00;100747.60;1899530;75;26181;-71
2021/03/26 11:54:08;;;;;;;9.97;2.73;;;;;;;13.66;100.00;100756.81;1898579;75;26630;-71
2021/03/26 11:56:48;;;;;;;11.70;2.07;;;;;;;13.78;100.00;100764.11;1898433;75;26252;-71
2021/03/26 11:59:52;;;;;;;11.57;3.03;;;;;;;13.80;100.00;100740.08;1898494;75;26215;-71
2021/03/26 12:02:35;;;;;;;8.00;2.10;;;;;;;13.74;100.00;100759.45;1898613;75;26146;-71
2021/03/26 12:05:10;;;;;;;3.70;1.87;;;;;;;13.74;100.00;100743.53;1898704;75;26618;-73
2021/03/26 12:07:43;;;;;;;7.30;2.47;;;;;;;13.57;100.00;100741.34;1853534;77;26333;-72
2021/03/26 12:10:19;;;;;;;7.57;2.73;;;;;;;13.58;100.00;100747.19;1898619;75;26193;-73